Time;durP1;ratioP1;P1;durP2;ratioP2;P2;SDS_P1;SDS_P2;PMS_P1;PMS_P2;Temp;Humidity;BMP_temperature;BMP_pressure;BME280_temperature;BME280_humidity;BME280_pressure;Samples;Min_cycle;Max_cycle;Signal;HPM_P1;HPM_P2
2023/01/19 00:01:29;;;;;;;;;;;3.00;99.90;;;;;;5132955;27;20285;-58
2023/01/19 00:03:55;;;;;;;;;;;2.90;99.90;;;;;;5131600;27;19919;-57
2023/01/19 00:06:20;;;;;;;;;;;3.00;99.90;;;;;;5132375;27;20019;-57
2023/01/19 00:08:47;;;;;;;;;;;3.00;99.90;;;;;;5132762;27;19907;-59
2023/01/19 00:11:13;;;;;;;;;;;3.00;99.90;;;;;;5133099;28;19907;-58
2023/01/19 00:13:39;;;;;;;;;;;3.00;99.90;;;;;;5128537;28;20305;-60
2023/01/19 00:16:05;;;;;;;;;;;3.00;99.90;;;;;;5112487;28;19935;-59
2023/01/19 00:18:30;;;;;;;;;;;3.00;99.90;;;;;;5111929;28;20282;-58
2023/01/19 00:20:56;;;;;;;;;;;3.00;99.90;;;;;;5111397;28;19911;-59
2023/01/19 00:23:21;;;;;;;;;;;3.00;99.90;;;;;;5111766;28;19916;-58
2023/01/19 00:25:48;;;;;;;;;;;3.00;99.90;;;;;;5112054;28;19915;-59
2023/01/19 00:28:14;;;;;;;;;;;3.00;99.90;;;;;;5125865;28;20414;-58
2023/01/19 00:30:40;;;;;;;;;;;3.00;99.90;;;;;;5132580;28;20366;-58
2023/01/19 00:33:06;;;;;;;;;;;3.00;99.90;;;;;;5130402;28;19964;-60
2023/01/19 00:35:32;;;;;;;;;;;3.00;99.90;;;;;;5132079;28;20290;-59
2023/01/19 00:37:58;;;;;;;;;;;3.00;99.90;;;;;;5132567;28;19912;-59
2023/01/19 00:40:24;;;;;;;;;;;3.00;99.90;;;;;;5132922;28;19912;-58
2023/01/19 00:42:49;;;;;;;;;;;3.00;99.90;;;;;;5123730;28;20018;-59
2023/01/19 00:45:17;;;;;;;;;;;3.00;99.90;;;;;;5112276;28;20375;-60
2023/01/19 00:47:43;;;;;;;;;;;3.00;99.90;;;;;;5110985;28;19919;-60
2023/01/19 00:50:12;;;;;;;;;;;3.00;99.90;;;;;;5131744;27;19911;-58
2023/01/19 00:52:38;;;;;;;;;;;3.00;99.90;;;;;;5116998;27;20410;-64
2023/01/19 00:55:04;;;;;;;;;;;3.00;99.90;;;;;;5115509;28;20373;-59
2023/01/19 00:57:29;;;;;;;;;;;3.00;99.90;;;;;;5116047;28;20282;-59
2023/01/19 00:59:55;;;;;;;;;;;2.90;99.90;;;;;;5115904;28;19999;-59
2023/01/19 01:02:20;;;;;;;;;;;2.90;99.90;;;;;;5130020;27;19920;-59
2023/01/19 01:04:46;;;;;;;;;;;3.00;99.90;;;;;;5136118;27;20018;-60
2023/01/19 01:07:11;;;;;;;;;;;2.90;99.90;;;;;;5136495;27;19950;-59
2023/01/19 01:09:37;;;;;;;;;;;2.90;99.90;;;;;;5134091;27;20273;-59
2023/01/19 01:12:02;;;;;;;;;;;2.90;99.90;;;;;;5136167;27;19908;-59
2023/01/19 01:14:28;;;;;;;;;;;2.80;99.90;;;;;;5136169;27;19958;-58
2023/01/19 01:16:53;;;;;;;;;;;2.80;99.90;;;;;;5135250;27;19911;-58
2023/01/19 01:19:19;;;;;;;;;;;2.80;99.90;;;;;;5134108;27;19918;-57
2023/01/19 01:21:45;;;;;;;;;;;2.80;99.90;;;;;;5135718;27;20346;-61
2023/01/19 01:24:11;;;;;;;;;;;2.70;99.90;;;;;;5135321;27;19908;-58
2023/01/19 01:26:36;;;;;;;;;;;2.70;99.90;;;;;;5135941;27;20044;-59
2023/01/19 01:29:03;;;;;;;;;;;2.70;99.90;;;;;;5116875;27;20370;-58
2023/01/19 01:31:29;;;;;;;;;;;2.70;99.90;;;;;;5135111;27;19907;-59
2023/01/19 01:33:55;;;;;;;;;;;2.70;99.90;;;;;;5135759;27;19926;-60
2023/01/19 01:36:20;;;;;;;;;;;2.60;99.90;;;;;;5135854;27;19907;-58
2023/01/19 01:38:46;;;;;;;;;;;2.60;99.90;;;;;;5133919;27;19915;-59
2023/01/19 01:41:11;;;;;;;;;;;2.60;99.90;;;;;;5115782;27;19961;-60
2023/01/19 01:43:47;;;;;;;;;;;2.60;99.90;;;;;;5115106;28;20015;-60
2023/01/19 01:46:14;;;;;;;;;;;2.60;99.90;;;;;;5133675;27;19917;-59
2023/01/19 01:48:41;;;;;;;;;;;2.60;99.90;;;;;;5135261;27;19908;-60
2023/01/19 01:51:24;;;;;;;;;;;2.60;99.90;;;;;;5133867;27;19957;-57
2023/01/19 01:54:19;;;;;;;;;;;2.50;99.90;;;;;;5135044;27;19972;-59
2023/01/19 01:56:56;;;;;;;;;;;2.60;99.90;;;;;;5090259;28;19907;-59
2023/01/19 01:59:28;;;;;;;;;;;2.60;99.90;;;;;;5113584;27;19961;-58
2023/01/19 02:04:49;;;;;;;;;;;2.60;99.90;;;;;;5114876;28;19960;-58
2023/01/19 02:15:30;;;;;;;;;;;2.60;99.90;;;;;;5112839;27;20274;-59
2023/01/19 02:17:57;;;;;;;;;;;2.60;99.90;;;;;;5133713;27;19908;-60
2023/01/19 02:20:24;;;;;;;;;;;2.60;99.90;;;;;;5134187;27;20377;-59
2023/01/19 02:22:50;;;;;;;;;;;2.60;99.90;;;;;;5120045;27;19919;-58
2023/01/19 02:25:17;;;;;;;;;;;2.60;99.90;;;;;;5114318;28;19961;-59
2023/01/19 02:27:42;;;;;;;;;;;2.60;99.90;;;;;;5112885;27;20001;-57
2023/01/19 02:30:08;;;;;;;;;;;2.60;99.90;;;;;;5114258;28;20283;-59
2023/01/19 02:32:34;;;;;;;;;;;2.60;99.90;;;;;;5114135;28;20052;-59
2023/01/19 02:34:59;;;;;;;;;;;2.70;99.90;;;;;;5113196;28;20375;-58
2023/01/19 02:37:27;;;;;;;;;;;2.60;99.90;;;;;;5127717;27;19919;-57
2023/01/19 02:39:56;;;;;;;;;;;2.70;99.90;;;;;;5134204;27;20025;-57
2023/01/19 02:42:33;;;;;;;;;;;2.60;99.90;;;;;;5133722;27;20009;-60
2023/01/19 02:44:59;;;;;;;;;;;2.70;99.90;;;;;;5132824;27;19908;-58
2023/01/19 02:47:25;;;;;;;;;;;2.70;99.90;;;;;;5129275;27;19918;-56
2023/01/19 02:49:57;;;;;;;;;;;2.60;99.90;;;;;;5134161;27;19915;-57
2023/01/19 02:52:23;;;;;;;;;;;2.70;99.90;;;;;;5131073;27;19937;-57
2023/01/19 02:55:02;;;;;;;;;;;2.70;99.90;;;;;;5112743;28;20251;-58
2023/01/19 02:57:28;;;;;;;;;;;2.70;99.90;;;;;;5113672;28;19911;-57
2023/01/19 02:59:56;;;;;;;;;;;2.70;99.90;;;;;;5112887;27;19919;-58
2023/01/19 03:02:30;;;;;;;;;;;2.70;99.90;;;;;;5112398;27;19969;-58
2023/01/19 03:04:59;;;;;;;;;;;2.70;99.90;;;;;;5112650;28;19907;-59
2023/01/19 03:07:28;;;;;;;;;;;2.70;99.90;;;;;;5113508;28;19942;-57
2023/01/19 03:09:59;;;;;;;;;;;2.70;99.90;;;;;;5112309;28;20319;-57
2023/01/19 03:12:43;;;;;;;;;;;2.70;99.90;;;;;;5112706;28;19958;-57
2023/01/19 03:15:14;;;;;;;;;;;2.70;99.90;;;;;;5113415;28;19908;-57
2023/01/19 03:17:40;;;;;;;;;;;2.80;99.90;;;;;;5112572;28;20278;-58
2023/01/19 03:20:07;;;;;;;;;;;2.80;99.90;;;;;;5113393;28;19945;-58
2023/01/19 03:22:33;;;;;;;;;;;2.80;99.90;;;;;;5126740;27;19963;-58
2023/01/19 03:25:00;;;;;;;;;;;2.70;99.90;;;;;;5129426;27;20407;-57
2023/01/19 03:27:27;;;;;;;;;;;2.80;99.90;;;;;;5113106;28;19908;-58
2023/01/19 03:29:55;;;;;;;;;;;2.80;99.90;;;;;;5112161;28;19914;-58
2023/01/19 03:32:22;;;;;;;;;;;2.80;99.90;;;;;;5112571;28;19912;-57
2023/01/19 03:34:50;;;;;;;;;;;2.80;99.90;;;;;;5112867;28;19914;-57
2023/01/19 03:37:18;;;;;;;;;;;2.80;99.90;;;;;;5112380;28;19933;-60
2023/01/19 03:39:43;;;;;;;;;;;2.80;99.90;;;;;;5112707;28;19969;-57
2023/01/19 03:42:10;;;;;;;;;;;2.70;99.90;;;;;;5112153;28;19923;-56
2023/01/19 03:44:36;;;;;;;;;;;2.70;99.90;;;;;;5111513;28;19912;-57
2023/01/19 03:47:03;;;;;;;;;;;2.70;99.90;;;;;;5116363;27;20070;-56
2023/01/19 03:49:30;;;;;;;;;;;2.70;99.90;;;;;;5133218;27;20011;-57
2023/01/19 03:51:57;;;;;;;;;;;2.70;99.90;;;;;;5131358;27;20370;-58
2023/01/19 03:54:23;;;;;;;;;;;2.70;99.90;;;;;;5133007;27;20390;-57
2023/01/19 03:56:48;;;;;;;;;;;2.70;99.90;;;;;;5131947;27;19915;-56
2023/01/19 03:59:16;;;;;;;;;;;2.70;99.90;;;;;;5132350;27;19908;-57
2023/01/19 04:01:41;;;;;;;;;;;2.60;99.90;;;;;;5131511;27;20381;-57
2023/01/19 04:04:07;;;;;;;;;;;2.60;99.90;;;;;;5132033;27;19914;-58
2023/01/19 04:06:32;;;;;;;;;;;2.60;99.90;;;;;;5132373;27;19915;-57
2023/01/19 04:08:58;;;;;;;;;;;2.60;99.90;;;;;;5132907;27;19907;-57
2023/01/19 04:11:23;;;;;;;;;;;2.50;99.90;;;;;;5131993;28;20349;-57
2023/01/19 04:13:49;;;;;;;;;;;2.50;99.90;;;;;;5132026;28;19914;-57
2023/01/19 04:16:18;;;;;;;;;;;2.40;99.90;;;;;;5133067;28;19911;-58
2023/01/19 04:18:44;;;;;;;;;;;2.40;99.90;;;;;;5131915;28;20369;-57
2023/01/19 04:21:09;;;;;;;;;;;2.40;99.90;;;;;;5130494;28;19911;-56
2023/01/19 04:23:35;;;;;;;;;;;2.40;99.90;;;;;;5113158;28;19908;-56
2023/01/19 04:26:02;;;;;;;;;;;2.40;99.90;;;;;;5115557;28;19951;-57
2023/01/19 04:28:27;;;;;;;;;;;2.40;99.90;;;;;;5116836;28;19915;-56
2023/01/19 04:30:53;;;;;;;;;;;2.40;99.90;;;;;;5116495;28;19911;-57
2023/01/19 04:33:19;;;;;;;;;;;2.50;99.90;;;;;;5134858;27;20046;-56
2023/01/19 04:35:44;;;;;;;;;;;2.40;99.90;;;;;;5122469;27;19957;-57
2023/01/19 04:38:10;;;;;;;;;;;2.40;99.90;;;;;;5116607;28;19961;-57
2023/01/19 04:40:35;;;;;;;;;;;2.50;99.90;;;;;;5115432;28;19915;-56
2023/01/19 04:43:01;;;;;;;;;;;2.50;99.90;;;;;;5115406;27;19920;-56
2023/01/19 04:45:26;;;;;;;;;;;2.50;99.90;;;;;;5116395;28;19908;-57
2023/01/19 04:47:52;;;;;;;;;;;2.50;99.90;;;;;;5115379;28;20406;-58
2023/01/19 04:50:17;;;;;;;;;;;2.50;99.90;;;;;;5115834;28;19965;-58
2023/01/19 04:52:43;;;;;;;;;;;2.50;99.90;;;;;;5115509;28;19926;-59
2023/01/19 04:55:09;;;;;;;;;;;2.50;99.90;;;;;;5115385;28;19943;-57
2023/01/19 04:57:34;;;;;;;;;;;2.50;99.90;;;;;;5116071;28;19919;-57
2023/01/19 05:00:00;;;;;;;;;;;2.50;99.90;;;;;;5117820;27;20605;-58
2023/01/19 05:02:26;;;;;;;;;;;2.50;99.90;;;;;;5135818;27;19916;-57
2023/01/19 05:04:51;;;;;;;;;;;2.40;99.90;;;;;;5122145;27;19912;-58
2023/01/19 05:07:17;;;;;;;;;;;2.50;99.90;;;;;;5136484;27;20006;-57
2023/01/19 05:09:43;;;;;;;;;;;2.50;99.90;;;;;;5134812;27;19960;-56
2023/01/19 05:12:08;;;;;;;;;;;2.50;99.90;;;;;;5115874;28;20218;-58
2023/01/19 05:14:34;;;;;;;;;;;2.50;99.90;;;;;;5114981;28;19923;-56
2023/01/19 05:17:01;;;;;;;;;;;2.50;99.90;;;;;;5114859;28;19914;-58
2023/01/19 05:19:27;;;;;;;;;;;2.50;99.90;;;;;;5115680;28;20286;-58
2023/01/19 05:21:53;;;;;;;;;;;2.60;99.90;;;;;;5132016;27;19927;-58
2023/01/19 05:24:19;;;;;;;;;;;2.60;99.90;;;;;;5136032;27;19907;-58
2023/01/19 05:26:44;;;;;;;;;;;2.60;99.90;;;;;;5135700;27;19957;-58
2023/01/19 05:29:09;;;;;;;;;;;2.60;99.90;;;;;;5131152;27;19912;-59
2023/01/19 05:31:36;;;;;;;;;;;2.60;99.90;;;;;;5130780;27;19919;-59
2023/01/19 05:34:01;;;;;;;;;;;2.70;99.90;;;;;;5135728;27;19942;-58
2023/01/19 05:36:27;;;;;;;;;;;2.70;99.90;;;;;;5132472;27;19954;-58
2023/01/19 05:38:52;;;;;;;;;;;2.70;99.90;;;;;;5135481;27;19913;-59
2023/01/19 05:41:18;;;;;;;;;;;2.70;99.90;;;;;;5134736;27;19924;-59
2023/01/19 05:43:43;;;;;;;;;;;2.80;99.90;;;;;;5132852;27;20605;-58
2023/01/19 05:46:09;;;;;;;;;;;2.80;99.90;;;;;;5135840;27;19960;-58
2023/01/19 05:48:34;;;;;;;;;;;2.80;99.90;;;;;;5135559;27;19915;-57
2023/01/19 05:51:00;;;;;;;;;;;2.90;99.90;;;;;;5133659;27;19911;-56
2023/01/19 05:53:26;;;;;;;;;;;2.90;99.90;;;;;;5135227;27;19947;-57
2023/01/19 05:55:51;;;;;;;;;;;3.00;99.90;;;;;;5135139;27;20347;-57
2023/01/19 05:58:17;;;;;;;;;;;2.90;99.90;;;;;;5134975;27;19908;-56
2023/01/19 06:00:42;;;;;;;;;;;2.90;99.90;;;;;;5127444;27;19974;-56
2023/01/19 06:03:08;;;;;;;;;;;3.00;99.90;;;;;;5114927;28;20371;-56
2023/01/19 06:05:34;;;;;;;;;;;3.00;99.90;;;;;;5121997;27;19912;-56
2023/01/19 06:08:00;;;;;;;;;;;3.10;99.90;;;;;;5134920;27;19907;-56
2023/01/19 06:10:25;;;;;;;;;;;3.10;99.90;;;;;;5133616;27;19912;-56
2023/01/19 06:12:51;;;;;;;;;;;3.10;99.90;;;;;;5134357;27;19968;-55
2023/01/19 06:15:17;;;;;;;;;;;3.10;99.90;;;;;;5135124;27;20360;-55
2023/01/19 06:17:42;;;;;;;;;;;3.10;99.90;;;;;;5134731;27;19907;-55
2023/01/19 06:20:08;;;;;;;;;;;3.10;99.90;;;;;;5118491;27;19912;-55
2023/01/19 06:22:33;;;;;;;;;;;3.10;99.90;;;;;;5114402;28;20310;-55
2023/01/19 06:24:59;;;;;;;;;;;3.10;99.90;;;;;;5113928;28;20506;-55
2023/01/19 06:27:24;;;;;;;;;;;3.10;99.90;;;;;;5113639;28;19911;-54
2023/01/19 06:29:50;;;;;;;;;;;3.10;99.90;;;;;;5125562;27;19977;-55
2023/01/19 06:32:16;;;;;;;;;;;3.10;99.90;;;;;;5128739;27;19912;-55
2023/01/19 06:34:42;;;;;;;;;;;3.10;99.90;;;;;;5113195;28;19942;-55
2023/01/19 06:37:10;;;;;;;;;;;3.10;99.90;;;;;;5114152;28;20310;-55
2023/01/19 06:39:36;;;;;;;;;;;3.10;99.90;;;;;;5112767;27;19916;-55
2023/01/19 06:42:02;;;;;;;;;;;3.10;99.90;;;;;;5113519;28;19924;-55
2023/01/19 06:44:27;;;;;;;;;;;3.10;99.90;;;;;;5121799;27;19923;-55
2023/01/19 06:46:53;;;;;;;;;;;3.10;99.90;;;;;;5131296;27;19915;-55
2023/01/19 06:49:18;;;;;;;;;;;3.10;99.90;;;;;;5126795;27;19966;-55
2023/01/19 06:51:44;;;;;;;;;;;3.10;99.90;;;;;;5112829;28;19915;-54
2023/01/19 06:54:09;;;;;;;;;;;3.10;99.90;;;;;;5112885;28;20406;-55
2023/01/19 06:56:35;;;;;;;;;;;3.10;99.90;;;;;;5112526;28;19918;-55
2023/01/19 06:59:00;;;;;;;;;;;3.10;99.90;;;;;;5120405;27;19911;-55
2023/01/19 07:01:26;;;;;;;;;;;3.20;99.90;;;;;;5133464;27;20007;-55
2023/01/19 07:03:51;;;;;;;;;;;3.20;99.90;;;;;;5134011;27;20395;-55
2023/01/19 07:06:17;;;;;;;;;;;3.20;99.90;;;;;;5134100;27;19908;-55
2023/01/19 07:08:43;;;;;;;;;;;3.30;99.90;;;;;;5122804;27;19966;-56
2023/01/19 07:11:09;;;;;;;;;;;3.30;99.90;;;;;;5123974;27;20360;-56
2023/01/19 07:13:35;;;;;;;;;;;3.30;99.90;;;;;;5132528;27;20274;-56
2023/01/19 07:16:08;;;;;;;;;;;3.40;99.90;;;;;;5127453;27;20267;-55
2023/01/19 07:18:33;;;;;;;;;;;3.40;99.90;;;;;;5127031;27;19911;-56
2023/01/19 07:20:59;;;;;;;;;;;3.40;99.90;;;;;;5129401;27;19915;-56
2023/01/19 07:23:24;;;;;;;;;;;3.40;99.90;;;;;;5131471;27;19914;-57
2023/01/19 07:25:50;;;;;;;;;;;3.40;99.90;;;;;;5123364;27;19915;-57
2023/01/19 07:28:15;;;;;;;;;;;3.40;99.90;;;;;;5128037;27;20298;-57
2023/01/19 07:30:42;;;;;;;;;;;3.40;99.90;;;;;;5126133;27;20002;-56
2023/01/19 07:33:07;;;;;;;;;;;3.40;99.90;;;;;;5125907;27;19911;-57
2023/01/19 07:35:33;;;;;;;;;;;3.40;99.90;;;;;;5126648;27;19912;-58
2023/01/19 07:37:58;;;;;;;;;;;3.40;99.90;;;;;;5125114;27;19919;-58
2023/01/19 07:40:24;;;;;;;;;;;3.40;99.90;;;;;;5128880;27;19912;-58
2023/01/19 07:42:50;;;;;;;;;;;3.50;99.90;;;;;;5125337;27;20290;-58
2023/01/19 07:45:17;;;;;;;;;;;3.50;99.90;;;;;;5130168;27;19911;-57
2023/01/19 07:47:43;;;;;;;;;;;3.60;99.90;;;;;;5131590;27;19911;-56
2023/01/19 07:50:09;;;;;;;;;;;3.60;99.90;;;;;;5132413;27;20010;-56
2023/01/19 07:52:35;;;;;;;;;;;3.60;99.90;;;;;;5121539;27;19911;-51
2023/01/19 07:55:00;;;;;;;;;;;3.70;99.90;;;;;;5112484;28;20342;-56
2023/01/19 07:57:27;;;;;;;;;;;3.60;99.90;;;;;;5126110;27;19915;-56
2023/01/19 07:59:52;;;;;;;;;;;3.60;99.90;;;;;;5132120;27;19908;-55
2023/01/19 08:02:17;;;;;;;;;;;3.60;99.90;;;;;;5124502;27;20336;-56
2023/01/19 08:04:43;;;;;;;;;;;3.60;99.90;;;;;;5111381;28;19914;-56
2023/01/19 08:07:08;;;;;;;;;;;3.60;99.90;;;;;;5112595;28;19908;-55
2023/01/19 08:09:34;;;;;;;;;;;3.60;99.90;;;;;;5112536;28;19957;-55
2023/01/19 08:11:59;;;;;;;;;;;3.60;99.90;;;;;;5114109;28;20355;-56
2023/01/19 08:14:25;;;;;;;;;;;3.60;99.90;;;;;;5112513;28;19912;-57
2023/01/19 08:16:50;;;;;;;;;;;3.60;99.90;;;;;;5121092;28;19964;-54
2023/01/19 08:19:18;;;;;;;;;;;3.60;99.90;;;;;;5130778;28;20408;-56
2023/01/19 08:21:45;;;;;;;;;;;3.60;99.90;;;;;;5127248;28;20652;-55
2023/01/19 08:24:17;;;;;;;;;;;3.60;99.90;;;;;;5128029;28;19911;-57
2023/01/19 08:26:42;;;;;;;;;;;3.70;99.90;;;;;;5130903;28;19908;-55
2023/01/19 08:29:08;;;;;;;;;;;3.60;99.90;;;;;;5132809;28;19907;-55
2023/01/19 08:31:33;;;;;;;;;;;3.70;99.90;;;;;;5117033;28;19912;-55
2023/01/19 08:33:59;;;;;;;;;;;3.60;99.90;;;;;;5111526;28;20022;-54
2023/01/19 08:36:24;;;;;;;;;;;3.60;99.90;;;;;;5112288;28;19912;-54
2023/01/19 08:38:50;;;;;;;;;;;3.60;99.90;;;;;;5121555;28;19916;-56
2023/01/19 08:41:15;;;;;;;;;;;3.50;99.90;;;;;;5111570;28;19922;-57
2023/01/19 08:43:41;;;;;;;;;;;3.50;99.90;;;;;;5124038;28;20010;-57
2023/01/19 08:46:06;;;;;;;;;;;3.50;99.90;;;;;;5129041;28;19911;-57
2023/01/19 08:48:32;;;;;;;;;;;3.50;99.90;;;;;;5112239;28;19908;-56
2023/01/19 08:50:59;;;;;;;;;;;3.50;99.90;;;;;;5111888;28;20010;-56
2023/01/19 08:53:24;;;;;;;;;;;3.50;99.90;;;;;;5121716;28;19926;-56
2023/01/19 08:55:56;;;;;;;;;;;3.50;99.90;;;;;;5126083;28;19915;-57
2023/01/19 08:58:21;;;;;;;;;;;3.50;99.90;;;;;;5121597;27;20373;-56
2023/01/19 09:00:47;;;;;;;;;;;3.50;99.90;;;;;;5116043;28;19916;-57
2023/01/19 09:03:13;;;;;;;;;;;3.50;99.90;;;;;;5120398;28;19920;-56
2023/01/19 09:05:39;;;;;;;;;;;3.60;99.90;;;;;;5111572;28;19919;-55
2023/01/19 09:08:08;;;;;;;;;;;3.60;99.90;;;;;;5110545;28;21464;-56
2023/01/19 09:10:36;;;;;;;;;;;3.70;99.90;;;;;;5114021;28;19995;-56
2023/01/19 09:13:09;;;;;;;;;;;3.80;99.90;;;;;;5122484;27;19973;-56
2023/01/19 09:15:36;;;;;;;;;;;3.80;99.90;;;;;;5135199;27;19957;-57
2023/01/19 09:18:06;;;;;;;;;;;3.90;99.90;;;;;;5135422;27;19907;-57
2023/01/19 09:20:33;;;;;;;;;;;4.00;99.90;;;;;;5129938;27;19916;-55
2023/01/19 09:22:59;;;;;;;;;;;4.00;99.90;;;;;;5114971;27;19920;-56
2023/01/19 09:25:25;;;;;;;;;;;4.00;99.90;;;;;;5115561;27;19968;-54
2023/01/19 09:27:50;;;;;;;;;;;4.00;99.90;;;;;;5122020;27;19957;-56
2023/01/19 09:30:17;;;;;;;;;;;4.00;99.90;;;;;;5133811;27;20288;-54
2023/01/19 09:32:43;;;;;;;;;;;4.10;99.90;;;;;;5126077;27;19964;-56
2023/01/19 09:35:09;;;;;;;;;;;4.10;99.90;;;;;;5131074;27;19915;-56
2023/01/19 09:37:35;;;;;;;;;;;4.00;99.90;;;;;;5130994;27;19920;-57
2023/01/19 09:40:00;;;;;;;;;;;4.00;99.90;;;;;;5133130;27;19911;-56
2023/01/19 09:42:32;;;;;;;;;;;4.00;99.90;;;;;;5119967;27;19982;-56
2023/01/19 09:44:57;;;;;;;;;;;4.00;99.90;;;;;;5120795;27;20374;-55
2023/01/19 09:47:26;;;;;;;;;;;4.00;99.90;;;;;;5115257;28;19914;-55
2023/01/19 09:50:03;;;;;;;;;;;3.90;99.90;;;;;;5114156;28;19908;-56
2023/01/19 09:52:31;;;;;;;;;;;4.00;99.90;;;;;;5114755;28;20385;-57
2023/01/19 09:54:57;;;;;;;;;;;3.90;99.90;;;;;;5114611;28;20414;-56
2023/01/19 09:57:24;;;;;;;;;;;3.90;99.90;;;;;;5114085;28;19925;-56
2023/01/19 09:59:50;;;;;;;;;;;3.90;99.90;;;;;;5114253;27;20382;-57
2023/01/19 10:02:15;;;;;;;;;;;3.90;99.90;;;;;;5114911;28;19924;-56
2023/01/19 10:04:42;;;;;;;;;;;4.00;99.90;;;;;;5113657;28;19961;-56
2023/01/19 10:07:11;;;;;;;;;;;4.10;99.90;;;;;;5114906;28;19912;-55
2023/01/19 10:09:55;;;;;;;;;;;4.20;99.90;;;;;;5123971;27;19907;-56
2023/01/19 10:12:39;;;;;;;;;;;4.30;99.90;;;;;;5120068;27;19916;-56
2023/01/19 10:15:13;;;;;;;;;;;4.40;99.90;;;;;;5135546;27;19954;-56
2023/01/19 10:17:46;;;;;;;;;;;4.60;99.90;;;;;;5115518;27;19961;-57
2023/01/19 10:20:18;;;;;;;;;;;4.60;99.90;;;;;;5114707;28;19914;-56
2023/01/19 10:22:47;;;;;;;;;;;4.70;99.90;;;;;;5113811;28;19920;-56
2023/01/19 10:25:16;;;;;;;;;;;4.80;99.90;;;;;;5114606;28;19907;-56
2023/01/19 10:27:42;;;;;;;;;;;4.90;99.90;;;;;;5117860;27;19911;-56
2023/01/19 10:30:12;;;;;;;;;;;5.00;99.90;;;;;;5134439;27;20284;-55
2023/01/19 10:32:38;;;;;;;;;;;5.00;99.90;;;;;;5129937;27;20422;-58
2023/01/19 10:35:20;;;;;;;;;;;5.10;99.90;;;;;;5134446;27;19908;-56
2023/01/19 10:37:45;;;;;;;;;;;5.20;99.90;;;;;;5129764;27;19926;-55
2023/01/19 10:40:11;;;;;;;;;;;5.30;99.90;;;;;;5132092;27;19911;-54
2023/01/19 10:42:37;;;;;;;;;;;5.30;99.90;;;;;;5134559;27;19919;-56
2023/01/19 10:45:13;;;;;;;;;;;5.40;99.90;;;;;;5134596;27;20350;-56
2023/01/19 10:47:39;;;;;;;;;;;5.50;99.90;;;;;;5133453;27;19976;-55
2023/01/19 10:50:22;;;;;;;;;;;5.60;99.90;;;;;;5132525;27;20447;-55
2023/01/19 10:52:58;;;;;;;;;;;5.60;99.90;;;;;;5133056;27;20015;-56
2023/01/19 10:55:28;;;;;;;;;;;5.60;99.90;;;;;;5117726;27;19916;-55
2023/01/19 10:57:55;;;;;;;;;;;5.70;99.90;;;;;;5121784;27;19933;-56
2023/01/19 11:00:36;;;;;;;;;;;5.70;99.90;;;;;;5133596;27;20164;-55
2023/01/19 11:03:03;;;;;;;;;;;5.80;99.90;;;;;;5115449;27;19941;-56
2023/01/19 11:05:30;;;;;;;;;;;5.80;99.90;;;;;;5116802;27;19923;-57
2023/01/19 11:07:55;;;;;;;;;;;5.80;99.90;;;;;;5116992;27;19915;-56
2023/01/19 11:10:23;;;;;;;;;;;5.90;99.90;;;;;;5125349;27;20552;-56
2023/01/19 11:12:56;;;;;;;;;;;5.90;99.90;;;;;;5113275;27;19942;-55
2023/01/19 11:15:23;;;;;;;;;;;6.00;99.90;;;;;;5117001;27;20362;-56
2023/01/19 11:17:49;;;;;;;;;;;6.00;99.90;;;;;;5118926;27;19918;-55
2023/01/19 11:20:22;;;;;;;;;;;6.00;99.90;;;;;;5115479;27;19912;-55
2023/01/19 11:22:47;;;;;;;;;;;6.10;99.90;;;;;;5124292;27;19984;-54
2023/01/19 11:25:21;;;;;;;;;;;6.10;99.90;;;;;;5132824;27;20289;-54
2023/01/19 11:27:50;;;;;;;;;;;6.20;99.90;;;;;;5112533;28;20381;-55
2023/01/19 11:30:21;;;;;;;;;;;6.20;99.90;;;;;;5130575;27;19938;-53
2023/01/19 11:32:48;;;;;;;;;;;6.30;99.90;;;;;;5133486;27;20438;-54
2023/01/19 11:35:31;;;;;;;;;;;6.30;99.90;;;;;;5132802;27;19940;-55
2023/01/19 11:38:06;;;;;;;;;;;6.30;99.90;;;;;;5133362;27;19907;-56
2023/01/19 11:40:32;;;;;;;;;;;6.30;99.90;;;;;;5114587;27;19915;-54
2023/01/19 11:42:58;;;;;;;;;;;6.30;99.90;;;;;;5127184;27;20010;-55
2023/01/19 11:45:24;;;;;;;;;;;6.40;99.90;;;;;;5133454;27;19964;-56
2023/01/19 11:47:51;;;;;;;;;;;6.40;99.90;;;;;;5133052;27;19930;-55
2023/01/19 11:50:24;;;;;;;;;;;6.40;99.90;;;;;;5123528;27;19911;-54
2023/01/19 11:53:28;;;;;;;;;;;6.40;99.90;;;;;;5117951;27;19964;-55
2023/01/19 11:56:03;;;;;;;;;;;6.50;99.90;;;;;;5044168;28;19909;-55
2023/01/19 11:58:30;;;;;;;;;;;6.50;99.90;;;;;;5046310;28;20059;-55
2023/01/19 12:00:59;;;;;;;;;;;6.60;99.90;;;;;;5087097;27;19963;-55
2023/01/19 12:03:31;;;;;;;;;;;6.60;99.90;;;;;;5130192;27;19923;-55
2023/01/19 12:06:05;;;;;;;;;;;6.60;99.90;;;;;;5131260;27;19918;-56
2023/01/19 12:08:42;;;;;;;;;;;6.70;99.90;;;;;;5121425;27;19912;-55
2023/01/19 12:11:09;;;;;;;;;;;6.60;99.90;;;;;;5119026;28;20369;-56
2023/01/19 12:13:36;;;;;;;;;;;6.80;99.90;;;;;;5111361;28;19912;-55
2023/01/19 12:16:09;;;;;;;;;;;6.80;99.90;;;;;;5112641;28;19908;-56
2023/01/19 12:18:38;;;;;;;;;;;6.80;99.90;;;;;;5111752;28;19912;-55
2023/01/19 12:21:04;;;;;;;;;;;6.80;99.90;;;;;;5112322;28;19915;-55
2023/01/19 12:23:48;;;;;;;;;;;6.90;99.90;;;;;;5130289;28;19919;-55
2023/01/19 12:26:13;;;;;;;;;;;6.90;99.90;;;;;;5132237;28;19915;-56
2023/01/19 12:28:41;;;;;;;;;;;7.00;99.90;;;;;;5132661;28;19907;-54
2023/01/19 12:31:08;;;;;;;;;;;6.90;99.90;;;;;;5132197;28;19914;-55
2023/01/19 12:33:35;;;;;;;;;;;6.80;99.90;;;;;;5112791;28;20008;-55
2023/01/19 12:36:02;;;;;;;;;;;6.70;99.90;;;;;;5112126;28;19940;-55
2023/01/19 12:38:34;;;;;;;;;;;6.60;99.90;;;;;;5111527;28;19912;-55
2023/01/19 12:41:14;;;;;;;;;;;6.50;99.90;;;;;;5112100;28;19912;-55
2023/01/19 12:43:40;;;;;;;;;;;6.40;99.90;;;;;;5111976;28;19919;-54
2023/01/19 12:46:18;;;;;;;;;;;6.50;99.90;;;;;;5114780;28;19918;-55
2023/01/19 12:48:44;;;;;;;;;;;6.40;99.90;;;;;;5116426;27;20382;-55
2023/01/19 12:51:20;;;;;;;;;;;6.50;99.90;;;;;;5116285;28;19942;-54
2023/01/19 12:53:53;;;;;;;;;;;6.60;99.90;;;;;;5114824;28;19923;-56
2023/01/19 12:56:19;;;;;;;;;;;6.40;97.90;;;;;;5116167;28;19916;-55
2023/01/19 12:58:48;;;;;;;;;;;6.40;99.90;;;;;;5115882;28;19915;-55
2023/01/19 13:01:17;;;;;;;;;;;6.60;99.90;;;;;;5115235;28;19908;-55
2023/01/19 13:03:45;;;;;;;;;;;6.80;99.90;;;;;;5115249;28;19920;-55
2023/01/19 13:06:10;;;;;;;;;;;6.90;99.90;;;;;;5117670;27;19908;-55
2023/01/19 13:08:51;;;;;;;;;;;6.90;99.90;;;;;;5128020;27;20016;-55
2023/01/19 13:11:18;;;;;;;;;;;6.90;99.90;;;;;;5115325;27;19918;-55
2023/01/19 13:13:43;;;;;;;;;;;6.80;99.90;;;;;;5127604;27;20471;-53
2023/01/19 13:16:18;;;;;;;;;;;6.60;99.90;;;;;;5130087;27;20010;-53
2023/01/19 13:18:49;;;;;;;;;;;6.60;99.90;;;;;;5123791;27;19945;-54
2023/01/19 13:21:31;;;;;;;;;;;6.60;99.90;;;;;;5135281;27;19911;-55
2023/01/19 13:23:58;;;;;;;;;;;6.50;99.90;;;;;;5132539;27;19915;-54
2023/01/19 13:26:26;;;;;;;;;;;6.40;99.90;;;;;;5127599;27;20068;-56
2023/01/19 13:28:53;;;;;;;;;;;6.40;99.90;;;;;;5124153;27;19918;-55
2023/01/19 13:31:19;;;;;;;;;;;6.30;99.90;;;;;;5134033;27;19960;-55
2023/01/19 13:33:49;;;;;;;;;;;6.30;99.90;;;;;;5123458;27;20005;-54
2023/01/19 13:36:20;;;;;;;;;;;6.30;99.90;;;;;;5115927;27;20263;-54
2023/01/19 13:38:46;;;;;;;;;;;6.20;99.90;;;;;;5121501;27;19957;-55
2023/01/19 13:41:14;;;;;;;;;;;6.20;99.90;;;;;;5126123;27;19996;-55
2023/01/19 13:43:40;;;;;;;;;;;6.10;99.90;;;;;;5135346;27;19911;-55
2023/01/19 13:46:08;;;;;;;;;;;6.00;99.90;;;;;;5135823;27;19911;-53
2023/01/19 13:48:34;;;;;;;;;;;5.90;99.90;;;;;;5132812;27;20278;-54
2023/01/19 13:51:01;;;;;;;;;;;5.80;99.90;;;;;;5127670;27;19912;-56
2023/01/19 13:53:28;;;;;;;;;;;5.70;99.90;;;;;;5118080;27;19926;-56
2023/01/19 13:56:12;;;;;;;;;;;5.70;99.90;;;;;;5113059;28;19961;-56
2023/01/19 13:58:38;;;;;;;;;;;5.90;99.90;;;;;;5114686;28;19908;-57
2023/01/19 14:01:03;;;;;;;;;;;6.10;99.90;;;;;;5114975;28;19914;-56
2023/01/19 14:03:29;;;;;;;;;;;6.30;99.90;;;;;;5118228;27;20377;-57
2023/01/19 14:05:54;;;;;;;;;;;6.30;99.90;;;;;;5126940;27;19912;-57
2023/01/19 14:08:20;;;;;;;;;;;6.40;99.90;;;;;;5114727;28;20002;-56
2023/01/19 14:11:01;;;;;;;;;;;6.30;99.90;;;;;;5113610;28;20293;-56
2023/01/19 14:13:34;;;;;;;;;;;6.30;99.90;;;;;;5118233;27;19915;-56
2023/01/19 14:16:05;;;;;;;;;;;6.50;99.90;;;;;;5124963;27;20362;-57
2023/01/19 14:18:35;;;;;;;;;;;6.50;99.90;;;;;;5125496;27;19998;-56
2023/01/19 14:21:00;;;;;;;;;;;6.40;99.90;;;;;;5115257;27;20278;-56
2023/01/19 14:23:41;;;;;;;;;;;6.40;99.90;;;;;;5117883;27;19923;-55
2023/01/19 14:26:32;;;;;;;;;;;6.40;99.90;;;;;;5127196;27;19915;-56
2023/01/19 14:29:05;;;;;;;;;;;6.60;99.90;;;;;;5118788;27;20018;-58
2023/01/19 14:31:32;;;;;;;;;;;6.90;99.90;;;;;;5113107;27;19920;-57
2023/01/19 14:33:58;;;;;;;;;;;7.10;99.40;;;;;;5121847;27;19916;-57
2023/01/19 14:36:34;;;;;;;;;;;7.20;97.30;;;;;;5122810;27;19921;-56
2023/01/19 14:39:01;;;;;;;;;;;7.30;99.00;;;;;;5132702;27;19911;-56
2023/01/19 14:41:35;;;;;;;;;;;7.40;98.30;;;;;;5122689;27;19911;-57
2023/01/19 14:44:01;;;;;;;;;;;7.50;99.90;;;;;;5113462;27;19912;-56
2023/01/19 14:46:26;;;;;;;;;;;7.60;97.10;;;;;;5115225;27;19916;-56